Airfield :
LOGIN :

Register | Disclaimer

   EN    FR    IT 

 










Legend :    VFR   Marginal VFR   IFR   Intensive IFR   Very Intensive IFR
Visi :
Ceiling :
>= 8 km
>= 3000ft
5 to 8 km
1000 to 3000 ft
1500m to 5 km
500 to 1000 ft
800 to 1500m
200 to 500 ft
< 800m
< 200 ft
Symbols :   Thunderstorms  Fog  Heavy snow  Heavy precipitations  Wind > 20 kt
SIGMETs :     Misc.  Thunderstorms  Icing  Turbulence  Mountain Waves  Volcanic Ashes






- Airport Elevation : 796 ft
- IATA code : SYT


LFLN - Saint-Yan

CURRENT METAR :
  • 231900Z AUTO 28003KT CAVOK 14/10 Q1018 NOSIG

EXPIRED METARs :
  • 231830Z AUTO 31005KT CAVOK 16/10 Q1018 NOSIG
  • 231800Z AUTO VRB02KT CAVOK 18/10 Q1017 TEMPO FEW030CB
  • 231730Z AUTO 32004KT 280V350 CAVOK 17/09 Q1017 TEMPO FEW030CB
  • 231700Z AUTO 33008KT 9999 FEW042 OVC088 17/10 Q1017 TEMPO 4000 TSRA SCT030CB
  • 231630Z AUTO 31012KT 9999 FEW029/// BKN034/// BKN050/// ///TCU 16/10 Q1017 TEMPO 4000 TSRA SCT030CB
  • 231600Z AUTO 32004KT 9999 FEW033/// ///TCU 17/11 Q1017 TEMPO 4000 TSRA SCT030CB
  • 231530Z AUTO 31006KT 260V010 9999 SCT033 18/10 Q1017 TEMPO 4000 TSRA SCT030CB
  • 231500Z AUTO VRB03KT 9999 BKN034/// BKN047/// OVC150/// //////CB 19/10 Q1017 TEMPO 4000 TSRA
  • 231430Z AUTO 29004KT 220V360 9999 FEW031/// SCT094/// OVC160/// //////CB 18/10 Q1018 TEMPO 4000 TSRA

TAF TAF LFLN
Valid from the 23 at 18:00 until the 24 at 03:00 UTC


231700Z 2318/2403 VRB03KT 9999 FEW025 BKN050
PROB40
TEMPO 2318/2319 29010KT -SHRA FEW030CB



MET'MAP, your aeronautical weather chart ! - Copyright ORBIFLY December 2007 - Disclaimer

ORBIFLY MET'MAP TEAM :

Programming & Development : Alexandra Zaïnal
Original concept : Baudouin d'Aumeries
Technical & hardware support : Manuel Goepfert
Assistance : Marc-Olivier Méhu




SOURCES & CREDITS :

   NOAA